createdAt,value
2018-04-02T00:00:33.282Z,90.13
2018-04-02T00:03:02.393Z,94.40
2018-04-02T00:05:30.586Z,83.43
2018-04-02T00:07:58.787Z,101.73
2018-04-02T00:10:26.200Z,89.80
2018-04-02T00:12:53.631Z,90.63
2018-04-02T00:15:21.049Z,93.23
2018-04-02T00:17:49.242Z,91.55
2018-04-02T00:20:16.660Z,96.63
2018-04-02T00:22:44.086Z,92.00
2018-04-02T00:25:12.296Z,88.87
2018-04-02T00:27:39.710Z,102.47
2018-04-02T00:30:07.152Z,96.50
2018-04-02T00:32:34.564Z,102.40
2018-04-02T00:35:03.648Z,99.28
2018-04-02T00:37:31.063Z,100.43
2018-04-02T00:39:59.238Z,94.50
2018-04-02T00:42:26.657Z,96.87
2018-04-02T00:44:54.075Z,97.87
2018-04-02T00:47:22.278Z,89.80
2018-04-02T00:49:50.458Z,104.07
2018-04-02T00:52:18.643Z,101.00
2018-04-02T00:54:46.832Z,108.75
2018-04-02T00:57:15.020Z,109.33
2018-04-02T00:59:43.205Z,120.03
2018-04-02T01:02:10.652Z,123.83
2018-04-02T01:04:38.067Z,129.17
2018-04-02T01:07:05.487Z,126.40
2018-04-02T01:09:33.998Z,121.95
2018-04-02T01:12:03.117Z,128.60
2018-04-02T01:14:31.331Z,123.97
2018-04-02T01:16:58.747Z,126.73
2018-04-02T01:19:26.175Z,131.47
2018-04-02T01:21:53.606Z,142.07
2018-04-02T01:24:21.911Z,143.63
2018-04-02T01:26:50.078Z,152.63
2018-04-02T01:29:17.508Z,148.00
2018-04-02T01:31:44.940Z,156.10
2018-04-02T01:34:12.364Z,154.47
2018-04-02T01:36:39.777Z,147.63
2018-04-02T01:39:07.215Z,142.60
2018-04-02T01:41:35.388Z,148.02
2018-04-02T01:44:04.402Z,155.75
2018-04-02T01:46:33.508Z,150.07
2018-04-02T01:49:01.714Z,153.37
2018-04-02T01:51:29.162Z,158.87
2018-04-02T01:53:57.347Z,160.80
2018-04-02T01:56:25.559Z,159.37
2018-04-02T01:58:53.738Z,152.63
2018-04-02T02:01:21.166Z,168.83
2018-04-02T02:03:48.570Z,153.60
2018-04-02T02:06:16.007Z,156.73
2018-04-02T02:08:43.451Z,148.03
2018-04-02T02:11:11.094Z,158.13
2018-04-02T02:13:38.506Z,153.27
2018-04-02T02:16:05.929Z,162.07
2018-04-02T02:18:34.821Z,159.50
2018-04-02T02:21:02.260Z,151.07
2018-04-02T02:23:29.681Z,149.43
2018-04-02T02:25:57.122Z,148.95
2018-04-02T02:28:25.318Z,151.73
2018-04-02T02:30:52.746Z,155.97
2018-04-02T02:33:20.195Z,150.35
2018-04-02T02:35:47.664Z,135.57
2018-04-02T02:38:15.093Z,140.90
2018-04-02T02:40:42.515Z,130.17
2018-04-02T02:43:09.958Z,134.13
2018-04-02T02:45:37.386Z,132.40
2018-04-02T02:48:04.825Z,122.30
2018-04-02T02:50:32.250Z,130.23
2018-04-02T02:52:59.680Z,123.63
2018-04-02T02:55:27.871Z,126.10
2018-04-02T02:57:56.075Z,113.53
2018-04-02T03:00:24.271Z,117.37
2018-04-02T03:02:51.711Z,115.60
2018-04-02T03:05:19.112Z,116.40
2018-04-02T03:07:46.542Z,114.50
2018-04-02T03:10:14.742Z,115.53
2018-04-02T03:12:42.183Z,110.07
2018-04-02T03:15:09.607Z,105.03
2018-04-02T03:17:37.031Z,104.77
2018-04-02T03:20:04.875Z,111.32
2018-04-02T03:22:32.307Z,113.43
2018-04-02T03:24:59.774Z,115.13
2018-04-02T03:27:27.942Z,116.30
2018-04-02T03:29:56.122Z,109.07
2018-04-02T03:32:24.318Z,111.30
2018-04-02T03:34:52.504Z,115.63
2018-04-02T03:37:20.690Z,106.77
2018-04-02T03:39:48.139Z,117.57
2018-04-02T03:42:15.592Z,101.40
2018-04-02T03:44:43.031Z,106.73
2018-04-02T03:47:10.450Z,109.97
2018-04-02T03:49:38.629Z,106.73
2018-04-02T03:52:06.051Z,109.43
2018-04-02T03:54:33.469Z,111.20
2018-04-02T03:57:01.650Z,125.53
2018-04-02T03:59:29.070Z,113.13
2018-04-02T04:01:56.510Z,113.93
2018-04-02T04:04:24.695Z,124.27
2018-04-02T04:06:52.883Z,122.27
2018-04-02T04:09:20.356Z,120.85
2018-04-02T04:11:47.773Z,130.67
2018-04-02T04:14:15.198Z,124.60
2018-04-02T04:16:42.654Z,117.47
2018-04-02T04:19:10.842Z,115.80
2018-04-02T04:21:38.290Z,108.73
2018-04-02T04:24:05.842Z,114.63
2018-04-02T04:26:33.254Z,117.03
2018-04-02T04:29:00.685Z,114.10
2018-04-02T04:31:29.610Z,109.97
2018-04-02T04:33:57.807Z,113.23
2018-04-02T04:36:25.226Z,109.97
2018-04-02T04:38:52.659Z,108.70
2018-04-02T04:41:20.078Z,102.97
2018-04-02T04:43:47.504Z,99.07
2018-04-02T04:46:14.941Z,101.78
2018-04-02T04:48:43.157Z,101.73
2018-04-02T04:51:10.594Z,98.97
2018-04-02T04:53:38.772Z,100.97
2018-04-02T04:56:06.966Z,96.73
2018-04-02T04:58:36.070Z,95.63
2018-04-02T05:01:04.263Z,97.83
2018-04-02T05:03:32.478Z,101.87
2018-04-02T05:06:00.203Z,97.87
2018-04-02T05:08:27.597Z,95.63
2018-04-02T05:10:55.776Z,99.57
2018-04-02T05:13:24.001Z,93.47
2018-04-02T05:15:51.430Z,104.80
2018-04-02T05:18:19.630Z,101.50
2018-04-02T05:20:47.057Z,95.10
2018-04-02T05:23:14.463Z,103.50
2018-04-02T05:25:41.902Z,105.10
2018-04-02T05:28:09.434Z,102.27
2018-04-02T05:30:36.840Z,103.07
2018-04-02T05:33:04.262Z,108.60
2018-04-02T05:35:31.696Z,109.12
2018-04-02T05:37:59.899Z,106.47
2018-04-02T05:40:27.338Z,105.57
2018-04-02T05:42:55.556Z,105.95
2018-04-02T05:45:22.982Z,112.90
2018-04-02T05:47:50.399Z,112.10
2018-04-02T05:50:17.842Z,107.68
2018-04-02T05:52:45.264Z,105.80
2018-04-02T05:55:12.687Z,103.47
2018-04-02T05:57:40.144Z,101.37
2018-04-02T06:00:07.965Z,99.17
2018-04-02T06:02:35.412Z,105.57
2018-04-02T06:05:02.822Z,103.80
2018-04-02T06:07:30.227Z,106.77
2018-04-02T06:09:58.417Z,115.27
2018-04-02T06:12:26.620Z,114.80
2018-04-02T06:14:54.051Z,114.50
2018-04-02T06:17:21.501Z,115.93
2018-04-02T06:19:48.945Z,117.60
2018-04-02T06:22:16.394Z,112.27
2018-04-02T06:24:43.851Z,117.03
2018-04-02T06:27:12.034Z,111.07
2018-04-02T06:29:40.220Z,111.93
2018-04-02T06:32:08.403Z,114.50
2018-04-02T06:34:37.542Z,108.77
2018-04-02T06:37:04.941Z,113.13
2018-04-02T06:39:32.350Z,96.80
2018-04-02T06:41:59.778Z,92.37
2018-04-02T06:44:27.211Z,93.60
2018-04-02T06:46:54.649Z,106.50
2018-04-02T06:49:22.828Z,93.50
2018-04-02T06:51:51.046Z,101.73
2018-04-02T06:54:19.208Z,102.90
2018-04-02T06:56:46.638Z,100.10
2018-04-02T06:59:14.058Z,107.17
2018-04-02T07:01:41.502Z,102.70
2018-04-02T07:04:09.700Z,113.97
2018-04-02T07:06:38.605Z,113.43
2018-04-02T07:09:07.709Z,112.93
2018-04-02T07:11:35.897Z,119.60
2018-04-02T07:14:04.082Z,120.93
2018-04-02T07:16:32.280Z,115.57
2018-04-02T07:18:59.835Z,116.50
2018-04-02T07:21:27.280Z,120.07
2018-04-02T07:23:54.743Z,117.93
2018-04-02T07:26:22.156Z,112.23
2018-04-02T07:28:49.576Z,123.73
2018-04-02T07:31:16.994Z,120.30
2018-04-02T07:33:44.447Z,115.32
2018-04-02T07:36:11.884Z,120.23
2018-04-02T07:38:39.306Z,118.43
2018-04-02T07:41:06.730Z,114.80
2018-04-02T07:43:34.155Z,128.00
2018-04-02T07:46:02.388Z,128.70
2018-04-02T07:48:29.815Z,125.30
2018-04-02T07:50:57.237Z,133.20
2018-04-02T07:53:24.662Z,120.07
2018-04-02T07:55:52.083Z,130.67
2018-04-02T07:58:20.290Z,123.40
2018-04-02T08:00:47.770Z,138.77
2018-04-02T08:03:15.202Z,129.37
2018-04-02T08:05:43.408Z,116.60
2018-04-02T08:08:11.617Z,134.40
2018-04-02T08:10:39.030Z,136.53
2018-04-02T08:13:06.461Z,134.00
2018-04-02T08:15:33.866Z,128.40
2018-04-02T08:18:01.298Z,131.77
2018-04-02T08:20:28.727Z,131.47
2018-04-02T08:22:56.947Z,129.40
2018-04-02T08:25:24.412Z,129.70
2018-04-02T08:27:51.774Z,127.90
2018-04-02T08:30:19.212Z,130.20
2018-04-02T08:32:46.654Z,123.73
2018-04-02T08:35:14.857Z,124.97
2018-04-02T08:37:42.283Z,128.53
2018-04-02T08:40:09.734Z,130.47
2018-04-02T08:42:37.170Z,124.65
2018-04-02T08:45:04.674Z,120.80
2018-04-02T08:47:32.209Z,119.27
2018-04-02T08:49:59.614Z,126.47
2018-04-02T08:52:27.042Z,125.17
2018-04-02T08:54:55.226Z,127.37
2018-04-02T08:57:23.427Z,130.50
2018-04-02T08:59:51.614Z,129.20
2018-04-02T09:02:19.798Z,135.83
2018-04-02T09:04:47.990Z,136.07
2018-04-02T09:07:16.187Z,141.03
2018-04-02T09:09:43.625Z,134.93
2018-04-02T09:12:11.046Z,140.63
2018-04-02T09:14:38.464Z,140.20
2018-04-02T09:17:06.658Z,140.13
2018-04-02T09:19:34.901Z,143.40
2018-04-02T09:22:02.318Z,142.17
2018-04-02T09:24:29.726Z,137.57
2018-04-02T09:26:57.145Z,139.87
2018-04-02T09:29:25.358Z,125.93
2018-04-02T09:31:52.774Z,130.90
2018-04-02T09:34:20.202Z,130.50
2018-04-02T09:36:47.635Z,125.00
2018-04-02T09:39:15.811Z,131.47
2018-04-02T09:41:43.257Z,144.73
2018-04-02T09:44:10.686Z,144.03
2018-04-02T09:46:38.182Z,141.47
2018-04-02T09:49:05.623Z,145.00
2018-04-02T09:51:33.058Z,141.80
2018-04-02T09:54:01.300Z,152.97
2018-04-02T09:56:28.810Z,168.87
2018-04-02T09:58:56.174Z,174.67
2018-04-02T10:01:29.474Z,195.17
2018-04-02T10:03:56.910Z,194.87
2018-04-02T10:06:24.341Z,210.33
2018-04-02T10:08:52.538Z,202.40
2018-04-02T10:11:19.968Z,198.60
2018-04-02T10:13:47.395Z,199.33
2018-04-02T10:16:14.816Z,214.23
2018-04-02T10:18:43.046Z,217.80
2018-04-02T10:21:11.333Z,217.82
2018-04-02T10:23:38.791Z,208.23
2018-04-02T10:26:06.240Z,208.87
2018-04-02T10:28:34.434Z,212.70
2018-04-02T10:31:01.965Z,205.83
2018-04-02T10:33:30.120Z,196.87
2018-04-02T10:35:57.550Z,194.27
2018-04-02T10:38:25.761Z,202.77
2018-04-02T10:40:53.182Z,181.12
2018-04-02T10:43:20.629Z,182.97
2018-04-02T10:45:48.024Z,198.23
2018-04-02T10:48:15.434Z,189.23
2018-04-02T10:50:42.875Z,165.40
2018-04-02T10:53:11.863Z,158.70
2018-04-02T10:55:39.313Z,159.63
2018-04-02T10:58:06.728Z,154.90
2018-04-02T11:00:34.152Z,147.63
2018-04-02T11:03:01.612Z,157.87
2018-04-02T11:08:12.218Z,146.32
2018-04-02T11:10:39.634Z,139.50
2018-04-02T11:13:07.068Z,136.07
2018-04-02T11:15:34.493Z,130.60
2018-04-02T11:18:01.941Z,136.30
2018-04-02T11:20:29.337Z,131.53
2018-04-02T11:22:56.763Z,124.50
2018-04-02T11:25:24.968Z,128.23
2018-04-02T11:27:53.150Z,136.50
2018-04-02T11:30:21.350Z,139.43
2018-04-02T11:32:48.781Z,145.63
2018-04-02T11:35:16.194Z,141.77
2018-04-02T11:37:43.642Z,132.43
2018-04-02T11:40:12.430Z,130.25
2018-04-02T11:42:41.554Z,127.43
2018-04-02T11:45:08.969Z,124.53
2018-04-02T11:47:36.401Z,116.97
2018-04-02T11:50:04.734Z,118.57
2018-04-02T11:52:32.150Z,122.60
2018-04-02T11:54:59.629Z,116.40
2018-04-02T11:57:27.033Z,121.20
2018-04-02T11:59:54.462Z,130.40
2018-04-02T12:02:21.878Z,116.70
2018-04-02T12:04:49.318Z,111.77
2018-04-02T12:07:16.771Z,112.70
2018-04-02T12:09:44.228Z,116.10
2018-04-02T12:12:12.239Z,105.30
2018-04-02T12:14:39.651Z,110.03
2018-04-02T12:17:07.082Z,108.20
2018-04-02T12:19:34.532Z,101.17
2018-04-02T12:22:01.966Z,96.73
2018-04-02T12:24:30.158Z,99.50
2018-04-02T12:26:58.335Z,91.40
2018-04-02T12:29:26.524Z,83.20
2018-04-02T12:31:53.939Z,74.73
2018-04-02T12:34:21.392Z,79.60
2018-04-02T12:36:48.837Z,76.63
2018-04-02T12:39:17.039Z,79.00
2018-04-02T12:41:44.463Z,76.37
2018-04-02T12:44:13.410Z,74.70
2018-04-02T12:46:40.842Z,77.57
2018-04-02T12:49:09.038Z,81.57
2018-04-02T12:51:37.259Z,84.23
2018-04-02T12:54:04.719Z,66.60
2018-04-02T12:56:32.907Z,75.60
2018-04-02T12:59:00.334Z,69.87
2018-04-02T13:01:27.806Z,74.95
2018-04-02T13:03:55.234Z,67.03
2018-04-02T13:06:22.670Z,70.50
2018-04-02T13:08:50.083Z,62.90
2018-04-02T13:11:17.523Z,60.27
2018-04-02T13:13:44.938Z,60.93
2018-04-02T13:16:13.890Z,68.63
2018-04-02T13:18:41.349Z,56.70
2018-04-02T13:21:08.797Z,62.30
2018-04-02T13:23:36.991Z,63.03
2018-04-02T13:26:05.210Z,61.33
2018-04-02T13:28:32.629Z,60.40
2018-04-02T13:31:00.877Z,59.97
2018-04-02T13:33:28.352Z,58.53
2018-04-02T13:35:56.508Z,56.17
2018-04-02T13:38:23.967Z,55.85
2018-04-02T13:40:51.429Z,53.10
2018-04-02T13:43:19.629Z,55.13
2018-04-02T13:45:47.064Z,57.53
2018-04-02T13:48:14.543Z,58.30
2018-04-02T13:50:41.961Z,58.80
2018-04-02T13:53:09.386Z,65.00
2018-04-02T13:55:37.599Z,60.17
2018-04-02T13:58:05.062Z,59.80
2018-04-02T14:00:32.506Z,63.53
2018-04-02T14:03:00.711Z,57.10
2018-04-02T14:05:28.142Z,53.57
2018-04-02T14:07:55.594Z,59.33
2018-04-02T14:10:23.019Z,47.70
2018-04-02T14:12:50.438Z,50.28
2018-04-02T14:15:17.882Z,54.43
2018-04-02T14:17:45.322Z,52.77
2018-04-02T14:20:12.795Z,53.60
2018-04-02T14:22:40.242Z,49.63
2018-04-02T14:25:08.439Z,50.93
2018-04-02T14:27:35.862Z,46.87
2018-04-02T14:30:03.290Z,45.12
2018-04-02T14:32:30.741Z,48.23
2018-04-02T14:34:58.203Z,46.70
2018-04-02T14:37:25.637Z,52.58
2018-04-02T14:39:53.077Z,47.70
2018-04-02T14:42:20.518Z,52.33
2018-04-02T14:44:47.941Z,48.80
2018-04-02T14:47:15.382Z,46.97
2018-04-02T14:49:42.828Z,54.80
2018-04-02T14:52:11.129Z,59.00
2018-04-02T14:54:38.530Z,56.77
2018-04-02T14:57:05.950Z,54.50
2018-04-02T14:59:33.358Z,51.13
2018-04-02T15:02:00.790Z,54.20
2018-04-02T15:04:28.258Z,57.03
2018-04-02T15:06:56.425Z,53.07
2018-04-02T15:09:24.602Z,71.33
2018-04-02T15:11:52.812Z,73.80
2018-04-02T15:14:21.007Z,114.80
2018-04-02T15:16:48.422Z,93.20
2018-04-02T15:19:16.774Z,74.50
2018-04-02T15:21:45.669Z,54.55
2018-04-02T15:24:13.118Z,51.97
2018-04-02T15:26:41.364Z,51.93
2018-04-02T15:29:10.363Z,53.93
2018-04-02T15:31:38.477Z,48.70
2018-04-02T15:34:06.721Z,52.03
2018-04-02T15:36:34.126Z,53.20
2018-04-02T15:39:02.351Z,50.40
2018-04-02T15:41:30.538Z,52.70
2018-04-02T15:43:58.006Z,51.07
2018-04-02T15:46:26.190Z,53.63
2018-04-02T15:48:53.613Z,49.10
2018-04-02T15:51:22.530Z,46.20
2018-04-02T15:53:50.722Z,46.37
2018-04-02T15:56:18.940Z,44.97
2018-04-02T15:58:46.355Z,46.50
2018-04-02T16:01:13.799Z,45.90
2018-04-02T16:03:41.254Z,43.37
2018-04-02T16:06:08.746Z,38.70
2018-04-02T16:08:36.166Z,43.03
2018-04-02T16:11:04.468Z,37.77
2018-04-02T16:13:32.659Z,39.30
2018-04-02T16:16:00.094Z,41.70
2018-04-02T16:18:27.522Z,40.47
2018-04-02T16:20:54.952Z,44.78
2018-04-02T16:23:23.139Z,44.67
2018-04-02T16:25:50.596Z,44.23
2018-04-02T16:28:18.793Z,47.80
2018-04-02T16:30:46.245Z,46.80
2018-04-02T16:33:13.676Z,47.60
2018-04-02T16:35:41.149Z,41.50
2018-04-02T16:38:08.854Z,42.10
2018-04-02T16:40:37.055Z,42.70
2018-04-02T16:43:04.510Z,42.73
2018-04-02T16:45:32.710Z,40.63
2018-04-02T16:48:00.181Z,42.70
2018-04-02T16:50:28.364Z,47.40
2018-04-02T16:52:55.793Z,41.80
2018-04-02T16:55:23.224Z,41.87
2018-04-02T16:57:50.642Z,42.93
2018-04-02T17:00:18.162Z,44.83
2018-04-02T17:02:47.155Z,41.37
2018-04-02T17:05:14.586Z,36.30
2018-04-02T17:07:42.008Z,39.93
2018-04-02T17:10:09.422Z,38.03
2018-04-02T17:12:36.875Z,43.30
2018-04-02T17:15:04.331Z,46.80
2018-04-02T17:17:31.732Z,42.33
2018-04-02T17:19:59.914Z,50.50
2018-04-02T17:22:27.434Z,45.07
2018-04-02T17:24:54.875Z,42.77
2018-04-02T17:27:23.054Z,43.53
2018-04-02T17:29:51.266Z,36.00
2018-04-02T17:32:18.676Z,47.73
2018-04-02T17:34:47.046Z,51.77
2018-04-02T17:37:14.458Z,56.90
2018-04-02T17:39:41.914Z,57.30
2018-04-02T17:42:10.130Z,64.93
2018-04-02T17:44:37.550Z,71.23
2018-04-02T17:47:04.974Z,68.10
2018-04-02T17:49:32.402Z,69.18
2018-04-02T17:51:59.958Z,62.27
2018-04-02T17:54:27.411Z,68.60
2018-04-02T17:56:54.846Z,74.05
2018-04-02T17:59:22.292Z,73.40
2018-04-02T18:01:49.706Z,70.90
2018-04-02T18:04:18.059Z,67.97
2018-04-02T18:06:47.180Z,71.17
2018-04-02T18:09:15.362Z,70.97
2018-04-02T18:11:43.575Z,75.70
2018-04-02T18:14:11.836Z,78.30
2018-04-02T18:16:39.257Z,71.10
2018-04-02T18:19:06.714Z,73.10
2018-04-02T18:21:34.147Z,70.18
2018-04-02T18:24:02.346Z,65.73
2018-04-02T18:26:29.790Z,73.27
2018-04-02T18:28:57.206Z,70.27
2018-04-02T18:31:24.610Z,72.70
2018-04-02T18:33:52.114Z,75.23
2018-04-02T18:36:19.537Z,72.87
2018-04-02T18:38:47.902Z,75.10
2018-04-02T18:41:15.371Z,69.60
2018-04-02T18:43:42.783Z,75.93
2018-04-02T18:46:10.990Z,73.70
2018-04-02T18:48:38.423Z,82.17
2018-04-02T18:51:05.840Z,73.37
2018-04-02T18:53:34.035Z,80.70
2018-04-02T18:56:02.137Z,80.30
2018-04-02T18:58:29.537Z,78.97
2018-04-02T19:00:56.981Z,76.93
2018-04-02T19:03:24.454Z,75.43
2018-04-02T19:05:51.826Z,80.73
2018-04-02T19:08:19.259Z,78.57
2018-04-02T19:10:46.683Z,72.13
2018-04-02T19:13:14.098Z,63.53
2018-04-02T19:15:41.527Z,73.57
2018-04-02T19:18:09.774Z,77.07
2018-04-02T19:20:37.194Z,77.40
2018-04-02T19:23:04.614Z,77.83
2018-04-02T19:25:32.042Z,77.53
2018-04-02T19:27:59.460Z,84.40
2018-04-02T19:30:26.882Z,89.00
2018-04-02T19:32:54.369Z,82.03
2018-04-02T19:35:21.818Z,80.80
2018-04-02T19:37:49.980Z,83.53
2018-04-02T19:40:19.119Z,81.23
2018-04-02T19:42:46.530Z,78.80
2018-04-02T19:45:14.714Z,79.27
2018-04-02T19:47:42.154Z,73.20
2018-04-02T19:50:09.584Z,79.63
2018-04-02T19:52:37.857Z,95.47
2018-04-02T19:55:06.062Z,85.43
2018-04-02T19:57:33.494Z,88.17
2018-04-02T20:00:00.906Z,86.83
2018-04-02T20:02:28.334Z,85.10
2018-04-02T20:04:55.756Z,90.62
2018-04-02T20:07:23.162Z,88.23
2018-04-02T20:09:50.578Z,90.67
2018-04-02T20:12:18.010Z,86.70
2018-04-02T20:14:45.421Z,103.43
2018-04-02T20:17:12.893Z,84.13
2018-04-02T20:19:40.365Z,72.80
2018-04-02T20:22:07.794Z,82.13
2018-04-02T20:24:35.218Z,76.70
2018-04-02T20:27:02.641Z,77.70
2018-04-02T20:29:30.837Z,69.27
2018-04-02T20:31:59.010Z,75.73
2018-04-02T20:34:27.334Z,75.23
2018-04-02T20:36:54.744Z,68.93
2018-04-02T20:39:22.321Z,66.53
2018-04-02T20:41:49.735Z,64.80
2018-04-02T20:44:17.145Z,63.40
2018-04-02T20:46:44.574Z,58.10
2018-04-02T20:49:12.041Z,65.77
2018-04-02T20:51:39.497Z,64.20
2018-04-02T20:54:06.925Z,65.73
2018-04-02T20:56:34.330Z,63.97
2018-04-02T20:59:01.780Z,67.07
2018-04-02T21:01:29.963Z,72.80
2018-04-02T21:03:58.304Z,69.17
2018-04-02T21:06:25.712Z,68.75
2018-04-02T21:08:53.144Z,64.70
2018-04-02T21:11:20.565Z,67.03
2018-04-02T21:13:48.747Z,69.73
2018-04-02T21:16:16.934Z,59.97
2018-04-02T21:18:45.143Z,63.33
2018-04-02T21:21:12.589Z,60.07
2018-04-02T21:23:40.773Z,47.10
2018-04-02T21:26:08.218Z,46.17
2018-04-02T21:28:35.643Z,42.30
2018-04-02T21:31:03.060Z,30.30
2018-04-02T21:33:30.475Z,31.80
2018-04-02T21:35:57.911Z,25.03
2018-04-02T21:38:26.110Z,26.03
2018-04-02T21:40:54.308Z,26.30
2018-04-02T21:43:22.529Z,30.17
2018-04-02T21:45:51.407Z,24.77
2018-04-02T21:48:18.844Z,25.00
2018-04-02T21:50:46.260Z,22.17
2018-04-02T21:53:13.733Z,23.13
2018-04-02T21:55:41.186Z,26.10
2018-04-02T21:58:08.645Z,24.50
2018-04-02T22:00:36.804Z,23.70
2018-04-02T22:03:04.243Z,25.00
2018-04-02T22:05:31.666Z,23.73
2018-04-02T22:08:09.114Z,22.43
2018-04-02T22:10:36.554Z,21.35
2018-04-02T22:13:03.989Z,20.70
2018-04-02T22:15:32.174Z,23.07
2018-04-02T22:18:00.362Z,19.13
2018-04-02T22:20:28.560Z,17.00
2018-04-02T22:22:56.790Z,23.80
2018-04-02T22:25:24.247Z,16.80
2018-04-02T22:27:51.654Z,17.97
2018-04-02T22:30:19.854Z,14.83
2018-04-02T22:32:48.056Z,17.37
2018-04-02T22:35:16.230Z,17.93
2018-04-02T22:37:44.428Z,14.63
2018-04-02T22:40:12.628Z,14.30
2018-04-02T22:42:40.058Z,13.17
2018-04-02T22:45:08.241Z,13.60
2018-04-02T22:47:35.674Z,16.37
2018-04-02T22:50:03.092Z,15.20
2018-04-02T22:52:31.296Z,15.40
2018-04-02T22:54:58.733Z,11.97
2018-04-02T22:57:26.151Z,17.73
2018-04-02T22:59:53.575Z,21.33
2018-04-02T23:02:22.599Z,12.43
2018-04-02T23:04:51.701Z,15.97
2018-04-02T23:07:19.878Z,13.50
2018-04-02T23:09:48.070Z,14.20
2018-04-02T23:12:16.268Z,14.57
2018-04-02T23:14:44.490Z,15.07
2018-04-02T23:17:11.925Z,12.87
2018-04-02T23:19:39.410Z,13.03
2018-04-02T23:22:06.830Z,12.23
2018-04-02T23:24:34.246Z,13.87
2018-04-02T23:27:01.658Z,12.67
2018-04-02T23:29:29.094Z,12.43
2018-04-02T23:31:56.544Z,12.60
2018-04-02T23:34:23.947Z,11.97
2018-04-02T23:36:53.061Z,13.00
2018-04-02T23:39:20.479Z,12.37
2018-04-02T23:41:47.909Z,14.43
2018-04-02T23:44:16.085Z,12.50
2018-04-02T23:46:43.513Z,11.00
2018-04-02T23:49:10.920Z,14.23
2018-04-02T23:51:38.353Z,9.40
2018-04-02T23:54:05.778Z,10.73
2018-04-02T23:56:33.211Z,10.60
2018-04-02T23:59:00.627Z,8.93
